CheckWX is a tool to help pilots better visualize weather data.  It is not intended as a substitute for an official pre-flight weather briefing.

15:43:49 UTC

VIDP METAR
Indira Gandhi International Airport
New Delhi, India
Current

14 mins ago

VIDP 211530Z 03004KT 3500 BR SCT040 BKN100 15/13 Q1020 NOSIG
Observed
Feb-21 @ 15:30 UTC
Wind
  • 030° at 4 KTS
Visibility
3,500 meters
Flight Rules
IFR
Conditions
Mist
Cloud Levels
  • Scattered at 4,000' AGL
  • Broken at 10,000' AGL
Temperature
15°C / 59°F
Dewpoint
13°C / 55°F
Humidity
88%
Altimeter
30.12" Hg
Pressure
1019.92 hPa
Previous

44 mins ago

VIDP 211500Z 00000KT 3500 BR SCT040 BKN100 15/13 Q1020 NOSIG
Observed
Feb-21 @ 15:00 UTC
Visibility
3,500 meters
Flight Rules
IFR
Conditions
Mist
Cloud Levels
  • Scattered at 4,000' AGL
  • Broken at 10,000' AGL
Temperature
15°C / 59°F
Dewpoint
13°C / 55°F
Humidity
88%
Altimeter
30.12" Hg
Pressure
1019.92 hPa
Previous

1 hour ago

VIDP 211430Z 03004KT 3500 BR SCT040 BKN100 16/13 Q1019 NOSIG
Observed
Feb-21 @ 14:30 UTC
Wind
  • 030° at 4 KTS
Visibility
3,500 meters
Flight Rules
IFR
Conditions
Mist
Cloud Levels
  • Scattered at 4,000' AGL
  • Broken at 10,000' AGL
Temperature
16°C / 61°F
Dewpoint
13°C / 55°F
Humidity
83%
Altimeter
30.09" Hg
Pressure
1018.92 hPa